Time;durP1;ratioP1;P1;durP2;ratioP2;P2;SDS_P1;SDS_P2;PMS_P1;PMS_P2;Temp;Humidity;BMP_temperature;BMP_pressure;BME280_temperature;BME280_humidity;BME280_pressure;Samples;Min_cycle;Max_cycle;Signal;HPM_P1;HPM_P2
2022/05/06 00:00:56;;;;;;;5.72;5.53;;;;;;;6.76;73.04;101615.31;5059194;28;20095;-61
2022/05/06 00:03:22;;;;;;;5.70;5.50;;;;;;;6.76;73.44;101620.59;5048653;28;20492;-61
2022/05/06 00:05:47;;;;;;;5.80;5.60;;;;;;;6.70;73.27;101620.25;5049358;28;20115;-62
2022/05/06 00:08:13;;;;;;;5.97;5.68;;;;;;;6.60;74.70;101625.41;5047758;28;20037;-61
2022/05/06 00:10:39;;;;;;;5.60;5.40;;;;;;;6.62;75.73;101621.69;5052313;28;20020;-61
2022/05/06 00:13:06;;;;;;;5.60;5.40;;;;;;;6.55;75.22;101625.78;5051597;28;20485;-61
2022/05/06 00:15:31;;;;;;;5.25;5.05;;;;;;;6.63;74.83;101627.81;5052239;28;20033;-62
2022/05/06 00:17:57;;;;;;;5.70;5.50;;;;;;;6.56;74.64;101626.63;5047955;28;20540;-62
2022/05/06 00:20:22;;;;;;;5.50;5.30;;;;;;;6.62;74.47;101626.97;5051695;28;20028;-60
2022/05/06 00:22:48;;;;;;;5.90;5.70;;;;;;;6.60;76.47;101634.16;5051628;28;20029;-61
2022/05/06 00:25:13;;;;;;;5.70;5.50;;;;;;;6.52;76.48;101623.38;5050185;28;20031;-62
2022/05/06 00:27:41;;;;;;;5.75;5.55;;;;;;;6.47;75.87;101630.00;5051401;28;20101;-62
2022/05/06 00:30:07;;;;;;;5.32;5.13;;;;;;;6.45;77.44;101629.25;5050922;28;20025;-62
2022/05/06 00:32:33;;;;;;;5.55;5.35;;;;;;;6.46;76.92;101636.19;5055224;28;20104;-61
2022/05/06 00:34:58;;;;;;;5.93;5.70;;;;;;;6.30;79.19;101620.75;5051687;28;20111;-61
2022/05/06 00:37:24;;;;;;;5.50;5.30;;;;;;;6.31;78.59;101636.44;5051977;28;20082;-61
2022/05/06 00:39:50;;;;;;;6.30;6.00;;;;;;;6.30;77.91;101628.66;5047589;28;20492;-61
2022/05/06 00:42:16;;;;;;;5.68;5.47;;;;;;;6.29;79.19;101624.34;5045987;28;20472;-61
2022/05/06 00:44:41;;;;;;;5.80;5.60;;;;;;;6.30;78.50;101632.13;5051768;28;20327;-61
2022/05/06 00:47:08;;;;;;;5.63;5.43;;;;;;;6.30;77.54;101620.75;5038860;28;20031;-61
2022/05/06 00:49:35;;;;;;;6.18;5.88;;;;;;;6.28;77.67;101630.59;5053590;28;20384;-62
2022/05/06 00:52:03;;;;;;;5.78;5.57;;;;;;;6.24;78.54;101632.63;5055572;28;20032;-61
2022/05/06 00:54:31;;;;;;;5.65;5.45;;;;;;;6.21;78.55;101629.38;5055557;28;20029;-62
2022/05/06 00:56:57;;;;;;;5.60;5.40;;;;;;;6.33;79.50;101639.81;5055515;28;20484;-62
2022/05/06 00:59:22;;;;;;;5.50;5.30;;;;;;;6.19;78.99;101629.50;5044957;28;20053;-61
2022/05/06 01:01:48;;;;;;;5.43;5.22;;;;;;;6.09;80.35;101628.53;5054305;28;20446;-60
2022/05/06 01:04:16;;;;;;;5.68;5.47;;;;;;;6.14;81.25;101628.19;5053406;28;20044;-61
2022/05/06 01:06:43;;;;;;;5.45;5.25;;;;;;;6.11;80.64;101623.16;5055125;28;20021;-62
2022/05/06 01:09:15;;;;;;;5.43;5.22;;;;;;;6.11;80.40;101631.91;5056088;28;20032;-63
2022/05/06 01:11:41;;;;;;;5.70;5.50;;;;;;;5.85;80.27;101633.84;5055275;28;20476;-62
2022/05/06 01:14:07;;;;;;;5.40;5.20;;;;;;;5.92;80.54;101626.38;5044167;28;20037;-62
2022/05/06 01:16:34;;;;;;;5.50;5.30;;;;;;;5.87;81.52;101626.66;5047909;28;20028;-62
2022/05/06 01:19:01;;;;;;;5.50;5.30;;;;;;;5.96;81.48;101628.66;5055304;28;20021;-61
2022/05/06 01:21:27;;;;;;;5.70;5.50;;;;;;;5.85;80.65;101630.38;5054589;28;20082;-61
2022/05/06 01:23:53;;;;;;;5.45;5.25;;;;;;;5.73;80.04;101627.75;5055487;28;20052;-63
2022/05/06 01:26:18;;;;;;;5.70;5.50;;;;;;;5.67;80.12;101636.09;5055166;28;20044;-62
2022/05/06 01:28:45;;;;;;;5.47;5.28;;;;;;;5.41;81.85;101635.41;5048362;28;20107;-61
2022/05/06 01:31:19;;;;;;;5.60;5.40;;;;;;;5.23;83.32;101626.25;5054925;28;20032;-61
2022/05/06 01:33:54;;;;;;;5.57;5.38;;;;;;;5.46;81.73;101632.44;5057862;28;20159;-61
2022/05/06 01:36:22;;;;;;;5.60;5.40;;;;;;;5.50;82.86;101626.81;5051447;28;20025;-61
2022/05/06 01:38:52;;;;;;;5.50;5.30;;;;;;;5.49;82.36;101629.56;5055038;28;20123;-62
2022/05/06 01:41:23;;;;;;;5.80;5.60;;;;;;;5.55;81.38;101637.84;5058272;28;20103;-62
2022/05/06 01:43:56;;;;;;;5.53;5.32;;;;;;;5.49;80.51;101630.41;5053870;28;20026;-61
2022/05/06 01:46:25;;;;;;;5.53;5.32;;;;;;;5.48;80.65;101635.78;5040230;28;20053;-62
2022/05/06 01:48:51;;;;;;;6.15;5.85;;;;;;;5.40;80.36;101635.53;5054797;28;20017;-62
2022/05/06 01:51:17;;;;;;;5.57;5.38;;;;;;;5.46;80.99;101624.56;5041201;28;20029;-60
2022/05/06 01:53:43;;;;;;;5.40;5.20;;;;;;;5.54;80.81;101628.28;5054337;28;20116;-62
2022/05/06 01:56:10;;;;;;;6.00;5.70;;;;;;;5.40;81.86;101631.09;5053507;28;20071;-61
2022/05/06 01:58:36;;;;;;;5.40;5.20;;;;;;;5.48;81.80;101631.38;5055140;28;20041;-61
2022/05/06 02:01:02;;;;;;;5.50;5.30;;;;;;;5.42;80.64;101631.81;5049779;28;20136;-61
2022/05/06 02:06:12;;;;;;;5.60;5.40;;;;;;;5.37;82.57;101636.59;5053393;28;20522;-61
2022/05/06 02:08:37;;;;;;;5.70;5.50;;;;;;;5.39;82.34;101633.84;5053167;28;20080;-60
2022/05/06 02:11:03;;;;;;;5.70;5.50;;;;;;;5.20;82.86;101619.41;5054217;28;20020;-61
2022/05/06 02:13:29;;;;;;;5.55;5.35;;;;;;;5.34;82.04;101635.97;5054260;28;20127;-62
2022/05/06 02:15:54;;;;;;;6.30;6.00;;;;;;;5.26;83.27;101637.38;5054109;28;20017;-61
2022/05/06 02:18:20;;;;;;;5.78;5.57;;;;;;;5.16;84.38;101633.75;5053807;28;20028;-61
2022/05/06 02:20:45;;;;;;;6.25;5.95;;;;;;;5.15;84.15;101623.34;5052592;28;20451;-61
2022/05/06 02:23:12;;;;;;;5.68;5.47;;;;;;;4.99;85.04;101627.13;5053734;28;20029;-61
2022/05/06 02:25:38;;;;;;;6.07;5.78;;;;;;;5.06;84.95;101635.38;5052275;28;20043;-61
2022/05/06 02:28:04;;;;;;;5.70;5.50;;;;;;;5.05;85.24;101638.13;5053635;28;20115;-61
2022/05/06 02:33:14;;;;;;;5.45;5.25;;;;;;;5.02;90.77;101638.34;5052691;28;20040;-61
2022/05/06 02:35:45;;;;;;;5.80;5.60;;;;;;;4.98;91.16;101642.97;5040131;28;20025;-62
2022/05/06 02:38:11;;;;;;;5.63;5.43;;;;;;;4.96;91.68;101621.22;5036196;28;20017;-62
2022/05/06 02:40:38;;;;;;;5.60;5.40;;;;;;;4.90;95.99;101648.78;5048421;28;20036;-61
2022/05/06 02:43:05;;;;;;;5.60;5.40;;;;;;;4.81;99.59;101641.56;5033990;28;20041;-62
2022/05/06 02:45:32;;;;;;;5.70;5.50;;;;;;;4.69;100.00;101647.69;5047861;28;20560;-61
2022/05/06 02:47:57;;;;;;;5.50;5.30;;;;;;;4.90;99.74;101647.94;5053533;28;20031;-62
2022/05/06 02:50:24;;;;;;;5.57;5.38;;;;;;;5.10;98.27;101654.41;5051157;28;20484;-61
2022/05/06 02:52:49;;;;;;;5.60;5.40;;;;;;;5.03;96.99;101661.06;5044371;28;20025;-62
2022/05/06 02:55:15;;;;;;;5.78;5.57;;;;;;;5.21;94.86;101662.34;5044505;28;20052;-62
2022/05/06 02:57:40;;;;;;;5.53;5.32;;;;;;;5.49;90.98;101642.72;5052237;28;20021;-61
2022/05/06 03:00:07;;;;;;;5.85;5.60;;;;;;;5.91;88.77;101659.75;5052877;28;20074;-60
2022/05/06 03:02:33;;;;;;;5.70;5.50;;;;;;;6.11;87.03;101665.31;5052921;28;20040;-60
2022/05/06 03:04:59;;;;;;;5.60;5.38;;;;;;;6.43;85.04;101665.44;5051628;28;20017;-61
2022/05/06 03:07:24;;;;;;;5.40;5.20;;;;;;;6.74;82.73;101667.31;5059187;28;20029;-62
2022/05/06 03:09:52;;;;;;;5.90;5.68;;;;;;;7.05;78.90;101657.81;5051637;28;20491;-61
2022/05/06 03:12:19;;;;;;;5.60;5.40;;;;;;;7.40;76.84;101662.84;5051648;28;20033;-62
2022/05/06 03:14:45;;;;;;;5.45;5.25;;;;;;;7.62;75.53;101661.06;5052515;28;20024;-61
2022/05/06 03:17:10;;;;;;;5.30;5.10;;;;;;;8.10;72.45;101663.19;5053365;28;20139;-60
2022/05/06 03:19:36;;;;;;;5.50;5.30;;;;;;;8.50;70.55;101660.63;5053124;28;20072;-61
2022/05/06 03:22:02;;;;;;;6.00;5.80;;;;;;;8.55;69.55;101661.06;5047053;28;20035;-61
2022/05/06 03:24:27;;;;;;;5.80;5.60;;;;;;;8.82;68.64;101666.59;5049406;28;20029;-62
2022/05/06 03:26:54;;;;;;;6.00;5.80;;;;;;;9.47;67.26;101671.41;5052697;28;20051;-61
2022/05/06 03:29:19;;;;;;;5.90;5.70;;;;;;;9.92;66.93;101664.53;5052715;28;20473;-62
2022/05/06 03:31:45;;;;;;;6.63;6.32;;;;;;;11.55;59.50;101669.16;5051095;28;20035;-60
2022/05/06 03:34:11;;;;;;;6.20;5.97;;;;;;;12.01;56.83;101664.56;5052497;28;20451;-62
2022/05/06 03:36:38;;;;;;;5.90;5.70;;;;;;;12.81;55.58;101667.78;5056626;28;20047;-63
2022/05/06 03:39:04;;;;;;;6.47;6.18;;;;;;;14.58;50.35;101677.81;5057593;28;20563;-61
2022/05/06 03:41:30;;;;;;;6.60;6.30;;;;;;;15.00;48.89;101657.09;5049824;28;20435;-63
2022/05/06 03:43:56;;;;;;;6.50;6.20;;;;;;;16.11;45.97;101678.78;5057594;28;20024;-62
2022/05/06 03:46:21;;;;;;;6.88;6.57;;;;;;;16.65;44.45;101678.50;5060752;28;20028;-62
2022/05/06 03:48:47;;;;;;;6.70;6.40;;;;;;;16.90;43.54;101681.75;5044856;28;20033;-63
2022/05/06 03:51:21;;;;;;;6.53;6.22;;;;;;;17.92;41.21;101687.75;5041345;28;20025;-62
2022/05/06 03:53:47;;;;;;;;;;;;;;;18.09;40.15;101682.91;5052630;28;20121;-62
2022/05/06 03:56:13;;;;;;;6.82;6.53;;;;;;;18.18;39.65;101686.25;5052087;28;19944;-62
2022/05/06 03:58:38;;;;;;;6.80;6.50;;;;;;;18.93;38.71;101673.84;5050691;28;20045;-61
2022/05/06 04:01:04;;;;;;;6.90;6.60;;;;;;;19.12;37.82;101685.72;5044103;28;20033;-63
2022/05/06 04:03:31;;;;;;;6.75;6.45;;;;;;;20.26;35.62;101683.69;5044187;28;20131;-63
2022/05/06 04:05:57;;;;;;;6.88;6.57;;;;;;;20.58;34.82;101694.66;5051723;28;20155;-63
2022/05/06 04:08:23;;;;;;;7.10;6.80;;;;;;;21.90;32.96;101695.78;5051053;28;20393;-62
2022/05/06 04:10:49;;;;;;;6.85;6.55;;;;;;;20.83;34.29;101694.75;5046927;28;20361;-63
2022/05/06 04:13:18;;;;;;;6.85;6.55;;;;;;;21.13;33.42;101701.25;5045748;28;20029;-63
2022/05/06 04:15:47;;;;;;;6.78;6.47;;;;;;;21.59;33.03;101702.03;5037725;28;20457;-63
2022/05/06 04:18:13;;;;;;;6.80;6.50;;;;;;;21.62;33.46;101705.13;5048997;28;20021;-63
2022/05/06 04:23:29;;;;;;;6.93;6.63;;;;;;;22.43;31.47;101709.63;5040982;28;20039;-62
2022/05/06 04:26:01;;;;;;;6.97;6.68;;;;;;;23.03;30.27;101706.22;5044933;28;20021;-62
2022/05/06 04:28:28;;;;;;;6.95;6.65;;;;;;;23.35;29.46;101712.22;5044049;28;20554;-62
2022/05/06 04:30:54;;;;;;;7.18;6.88;;;;;;;23.32;29.23;101710.00;5047240;28;20439;-63
2022/05/06 04:33:21;;;;;;;7.00;6.70;;;;;;;23.62;28.53;101708.09;5041686;28;20029;-63
2022/05/06 04:35:47;;;;;;;6.93;6.63;;;;;;;23.23;28.54;101714.91;5036846;28;20106;-63
2022/05/06 04:38:13;;;;;;;7.20;6.90;;;;;;;24.27;27.59;101713.44;5042271;28;20689;-62
2022/05/06 04:40:42;;;;;;;7.28;6.97;;;;;;;23.31;28.64;101720.00;5039379;28;20037;-63
2022/05/06 04:43:09;;;;;;;7.00;6.70;;;;;;;25.05;25.30;101716.78;5048636;28;20021;-63
2022/05/06 04:45:38;;;;;;;7.10;6.80;;;;;;;26.04;24.74;101727.19;5051608;28;20116;-65
2022/05/06 04:48:05;;;;;;;7.15;6.85;;;;;;;26.12;24.41;101722.16;5051808;28;20024;-62
2022/05/06 04:50:31;;;;;;;7.20;6.90;;;;;;;24.32;23.38;101723.59;5037860;28;20033;-62
2022/05/06 04:52:57;;;;;;;7.20;6.90;;;;;;;23.42;24.56;101724.63;5051276;28;20029;-61
2022/05/06 04:55:23;;;;;;;7.18;6.88;;;;;;;24.48;24.27;101722.91;5046823;28;20033;-63
2022/05/06 04:57:49;;;;;;;7.00;6.70;;;;;;;24.92;22.85;101727.88;5040287;28;20029;-62
2022/05/06 05:00:15;;;;;;;6.82;6.53;;;;;;;24.69;24.56;101731.47;5036416;28;20044;-62
2022/05/06 05:02:40;;;;;;;7.20;6.90;;;;;;;24.33;24.36;101719.84;5060385;28;20107;-62
2022/05/06 05:05:06;;;;;;;7.18;6.88;;;;;;;24.80;24.43;101731.44;5051514;28;20025;-62
2022/05/06 05:07:32;;;;;;;7.22;6.93;;;;;;;25.00;24.85;101722.06;5050373;28;20019;-62
2022/05/06 05:09:57;;;;;;;7.10;6.80;;;;;;;24.28;24.83;101722.41;5047185;28;20018;-62
2022/05/06 05:12:24;;;;;;;7.20;6.90;;;;;;;24.12;25.28;101723.13;5049959;28;20025;-62
2022/05/06 05:14:51;;;;;;;6.90;6.60;;;;;;;24.46;25.14;101729.63;5050296;28;20024;-64
2022/05/06 05:17:16;;;;;;;7.10;6.80;;;;;;;24.23;25.14;101722.28;5050945;28;20047;-61
2022/05/06 05:19:42;;;;;;;6.97;6.68;;;;;;;24.37;25.42;101734.56;5050196;28;20041;-62
2022/05/06 05:22:08;;;;;;;7.20;6.90;;;;;;;24.39;24.91;101737.06;5053161;28;20032;-62
2022/05/06 05:24:33;;;;;;;7.13;6.82;;;;;;;24.03;26.00;101729.97;5057542;28;20029;-64
2022/05/06 05:26:59;;;;;;;7.13;6.82;;;;;;;25.13;24.88;101734.56;5038072;28;20026;-63
2022/05/06 05:29:25;;;;;;;7.07;6.78;;;;;;;25.67;23.93;101741.25;5050175;28;20346;-63
2022/05/06 05:31:52;;;;;;;7.20;6.90;;;;;;;26.08;24.12;101744.69;5042972;28;20025;-65
2022/05/06 05:34:17;;;;;;;6.90;6.60;;;;;;;25.59;24.55;101747.91;5053180;28;20029;-63
2022/05/06 05:36:43;;;;;;;7.00;6.70;;;;;;;24.01;25.86;101738.31;5055899;28;20020;-64
2022/05/06 05:39:09;;;;;;;7.00;6.70;;;;;;;24.86;25.91;101742.41;5057698;28;20028;-64
2022/05/06 05:41:34;;;;;;;7.10;6.80;;;;;;;26.39;24.46;101740.53;5048539;28;20392;-64
2022/05/06 05:49:29;;;;;;;7.30;7.00;;;;;;;26.49;23.70;101748.00;5050233;28;20035;-64
2022/05/06 05:51:55;;;;;;;7.07;6.78;;;;;;;26.12;23.53;101743.91;5054082;28;20017;-63
2022/05/06 05:54:20;;;;;;;6.97;6.68;;;;;;;24.65;24.72;101741.16;5051612;28;20075;-64
2022/05/06 05:56:46;;;;;;;6.90;6.60;;;;;;;22.95;26.31;101742.56;5046321;28;20071;-64
2022/05/06 05:59:11;;;;;;;6.93;6.63;;;;;;;26.20;23.71;101747.28;5064148;28;20127;-63
2022/05/06 06:01:37;;;;;;;7.20;6.90;;;;;;;25.26;23.62;101750.56;5057289;28;20039;-62
2022/05/06 06:04:02;;;;;;;6.90;6.60;;;;;;;26.14;22.97;101747.19;5057908;28;20017;-63
2022/05/06 06:06:28;;;;;;;7.00;6.70;;;;;;;24.45;23.64;101749.66;5047282;28;20049;-64
2022/05/06 06:08:54;;;;;;;7.10;6.80;;;;;;;25.96;23.66;101752.09;5055645;28;20037;-63
2022/05/06 06:11:19;;;;;;;7.20;6.90;;;;;;;26.55;22.33;101747.00;5052181;28;20168;-63
2022/05/06 06:13:45;;;;;;;7.15;6.85;;;;;;;25.27;23.35;101744.06;5045498;28;20033;-63
2022/05/06 06:16:10;;;;;;;7.15;6.85;;;;;;;24.43;23.99;101746.38;5053096;28;20025;-63
2022/05/06 06:18:36;;;;;;;7.22;6.93;;;;;;;25.92;22.39;101754.47;5059668;28;20025;-63
2022/05/06 06:21:01;;;;;;;7.20;6.90;;;;;;;24.96;23.49;101761.59;5056359;28;20025;-63
2022/05/06 06:23:30;;;;;;;7.07;6.78;;;;;;;25.43;23.08;101758.75;5057707;28;20039;-62
2022/05/06 06:25:55;;;;;;;7.03;6.72;;;;;;;25.57;23.66;101760.94;5054959;28;20021;-63
2022/05/06 06:28:21;;;;;;;7.10;6.80;;;;;;;26.26;22.79;101760.72;5050619;28;20025;-64
2022/05/06 06:30:46;;;;;;;7.15;6.85;;;;;;;26.27;22.25;101753.38;5061461;28;20135;-64
2022/05/06 06:33:12;;;;;;;7.05;6.75;;;;;;;26.98;21.89;101754.38;5060380;28;20098;-63
2022/05/06 06:35:37;;;;;;;6.97;6.68;;;;;;;25.82;23.38;101748.88;5054317;28;20038;-64
2022/05/06 06:38:03;;;;;;;7.15;6.85;;;;;;;24.47;24.34;101748.38;5059415;28;20045;-64
2022/05/06 06:40:28;;;;;;;7.15;6.85;;;;;;;29.03;20.20;101752.22;5041265;28;20503;-65
2022/05/06 06:42:54;;;;;;;7.05;6.75;;;;;;;28.93;20.55;101749.41;5063546;28;20033;-64
2022/05/06 06:45:19;;;;;;;7.22;6.93;;;;;;;28.26;19.50;101748.22;5055534;28;20024;-63
2022/05/06 06:47:45;;;;;;;6.97;6.68;;;;;;;26.91;20.15;101748.28;5055339;28;20032;-66
2022/05/06 06:50:11;;;;;;;7.07;6.78;;;;;;;26.62;20.19;101744.94;5063133;28;20024;-64
2022/05/06 06:52:36;;;;;;;7.10;6.80;;;;;;;26.92;20.31;101749.94;5056413;28;20083;-63
2022/05/06 06:55:03;;;;;;;6.90;6.60;;;;;;;24.83;21.81;101746.44;5061383;28;20082;-63
2022/05/06 06:57:31;;;;;;;6.90;6.60;;;;;;;28.34;19.38;101742.28;5056430;28;20553;-64
2022/05/06 06:59:57;;;;;;;7.00;6.70;;;;;;;22.92;24.02;101736.78;5052928;28;20778;-64
2022/05/06 07:02:22;;;;;;;7.30;7.00;;;;;;;27.87;17.70;101743.03;5053290;28;20120;-64
2022/05/06 07:04:48;;;;;;;6.97;6.68;;;;;;;28.03;18.29;101738.53;5061808;28;20033;-64
2022/05/06 07:12:42;;;;;;;;;;;;;;;29.71;15.80;101747.41;5058495;28;20044;-65
2022/05/06 07:15:08;;;;;;;7.00;6.70;;;;;;;23.84;19.16;101734.66;5067719;28;19912;-66
2022/05/06 07:17:34;;;;;;;6.70;6.40;;;;;;;25.90;19.11;101726.72;5051840;28;20025;-65
2022/05/06 07:20:00;;;;;;;7.07;6.78;;;;;;;25.76;16.78;101741.69;5052140;28;20020;-64
2022/05/06 07:22:25;;;;;;;7.20;6.90;;;;;;;24.56;17.99;101737.97;5058802;28;20025;-65
2022/05/06 07:24:51;;;;;;;6.90;6.60;;;;;;;23.99;17.51;101730.41;5053617;28;20396;-65
2022/05/06 07:27:18;;;;;;;7.03;6.72;;;;;;;21.90;19.54;101737.13;5054962;28;20102;-65
2022/05/06 07:29:44;;;;;;;7.18;6.88;;;;;;;24.47;18.19;101728.56;5044477;28;20146;-64
2022/05/06 07:32:10;;;;;;;7.13;6.82;;;;;;;24.35;17.83;101735.88;5055331;28;20024;-65
2022/05/06 07:34:36;;;;;;;7.13;6.82;;;;;;;23.24;18.25;101721.97;5050011;28;20025;-64
2022/05/06 07:37:01;;;;;;;7.00;6.70;;;;;;;22.79;19.38;101725.03;5052960;28;20155;-64
2022/05/06 07:39:27;;;;;;;7.15;6.85;;;;;;;21.49;20.50;101718.72;5050075;28;20033;-64
2022/05/06 07:41:53;;;;;;;7.10;6.80;;;;;;;21.94;20.79;101719.41;5062686;28;20480;-64
2022/05/06 07:44:18;;;;;;;6.90;6.60;;;;;;;22.76;19.32;101720.06;5048835;28;20029;-64
2022/05/06 07:46:44;;;;;;;7.00;6.70;;;;;;;24.17;18.45;101726.78;5056278;28;20029;-65
2022/05/06 07:49:10;;;;;;;7.00;6.70;;;;;;;23.23;19.43;101716.81;5055636;28;20025;-65
2022/05/06 07:51:35;;;;;;;6.78;6.47;;;;;;;22.67;19.10;101721.41;5051813;28;20024;-65
2022/05/06 07:54:02;;;;;;;7.00;6.70;;;;;;;22.54;19.18;101721.56;5050725;28;20029;-65
2022/05/06 07:56:30;;;;;;;6.80;6.50;;;;;;;21.75;20.52;101715.00;5053208;28;20157;-65
2022/05/06 07:58:59;;;;;;;7.00;6.70;;;;;;;22.34;20.11;101732.59;5047366;28;20140;-65
2022/05/06 08:06:53;;;;;;;;;;;;;;;21.11;21.18;101716.84;5049652;28;20094;-64
2022/05/06 08:09:20;;;;;;;7.00;6.70;;;;;;;20.92;22.08;101712.34;5038179;28;19916;-65
2022/05/06 08:11:46;;;;;;;7.10;6.80;;;;;;;20.53;22.17;101714.16;5051541;28;20028;-65
2022/05/06 08:14:13;;;;;;;7.00;6.70;;;;;;;19.42;22.84;101722.00;5053964;28;20028;-65
2022/05/06 08:16:38;;;;;;;6.82;6.53;;;;;;;20.77;22.05;101723.41;5051251;28;20120;-64
2022/05/06 08:19:04;;;;;;;7.40;7.10;;;;;;;20.40;22.37;101720.38;5056069;28;20139;-64
2022/05/06 08:21:29;;;;;;;6.88;6.57;;;;;;;20.87;21.49;101710.31;5049125;28;20033;-64
2022/05/06 08:23:55;;;;;;;7.10;6.80;;;;;;;21.28;21.73;101725.28;5046437;28;20020;-64
2022/05/06 08:26:21;;;;;;;6.88;6.57;;;;;;;20.75;22.04;101720.09;5044828;28;20100;-64
2022/05/06 08:28:46;;;;;;;6.60;6.30;;;;;;;20.79;21.79;101732.13;5056720;28;20040;-64
2022/05/06 08:31:12;;;;;;;6.80;6.50;;;;;;;21.12;21.20;101733.84;5051886;28;20068;-64
2022/05/06 08:33:37;;;;;;;6.75;6.45;;;;;;;21.65;20.75;101714.66;5054312;28;20017;-64
2022/05/06 08:36:05;;;;;;;6.70;6.40;;;;;;;21.32;21.22;101707.63;5059722;28;20095;-63
2022/05/06 08:38:30;;;;;;;6.85;6.55;;;;;;;21.09;20.71;101716.22;5051118;28;20028;-63
2022/05/06 08:40:57;;;;;;;7.10;6.80;;;;;;;21.20;21.18;101726.34;5051133;28;20025;-63
2022/05/06 08:43:22;;;;;;;6.88;6.57;;;;;;;20.43;20.94;101721.84;5056323;28;20024;-63
2022/05/06 08:51:21;;;;;;;6.68;6.38;;;;;;;20.90;19.34;101719.84;5055175;28;20063;-63
2022/05/06 08:53:47;;;;;;;6.90;6.60;;;;;;;20.70;19.03;101704.53;5051263;28;20032;-64
2022/05/06 08:56:12;;;;;;;6.80;6.50;;;;;;;21.27;19.25;101693.09;5056937;28;20103;-65
2022/05/06 08:58:38;;;;;;;6.90;6.60;;;;;;;21.66;19.57;101698.22;5043841;28;20048;-66
2022/05/06 09:01:05;;;;;;;6.85;6.55;;;;;;;21.28;19.61;101710.97;5045619;28;20424;-64
2022/05/06 09:03:30;;;;;;;6.65;6.35;;;;;;;20.55;20.68;101706.66;5048692;28;20437;-64
2022/05/06 09:05:58;;;;;;;6.68;6.38;;;;;;;21.07;20.31;101685.09;5041971;28;20284;-63
2022/05/06 09:08:37;;;;;;;6.57;6.28;;;;;;;21.86;20.95;101689.97;5058846;28;20028;-64
2022/05/06 09:11:07;;;;;;;7.00;6.70;;;;;;;20.47;21.06;101682.66;5063416;28;20031;-65
2022/05/06 09:13:50;;;;;;;6.80;6.50;;;;;;;20.31;21.47;101694.69;5048969;28;20083;-63
2022/05/06 09:16:40;;;;;;;6.57;6.28;;;;;;;20.82;21.29;101695.81;5053732;28;20025;-62
2022/05/06 09:19:22;;;;;;;7.20;6.90;;;;;;;22.17;19.26;101689.09;5056161;28;20020;-64
2022/05/06 09:22:06;;;;;;;6.93;6.63;;;;;;;19.83;21.62;101692.25;5053974;28;20040;-64
2022/05/06 09:24:33;;;;;;;6.60;6.30;;;;;;;20.60;21.12;101682.59;5064918;28;20108;-64
2022/05/06 09:27:03;;;;;;;6.80;6.50;;;;;;;21.07;20.07;101669.72;5062654;28;20091;-65
2022/05/06 09:29:34;;;;;;;6.90;6.60;;;;;;;21.64;19.40;101673.31;5056139;28;20067;-64
2022/05/06 09:32:25;;;;;;;7.00;6.70;;;;;;;20.92;21.55;101701.56;5057329;28;20066;-63
2022/05/06 09:34:52;;;;;;;6.65;6.35;;;;;;;19.87;21.54;101703.44;5050111;28;20476;-63
2022/05/06 09:37:42;;;;;;;6.68;6.38;;;;;;;19.64;21.61;101693.06;5044546;28;20112;-63
2022/05/06 09:40:14;;;;;;;7.15;6.85;;;;;;;19.71;21.70;101688.53;5051544;28;20033;-64
2022/05/06 09:42:53;;;;;;;6.80;6.50;;;;;;;20.38;21.30;101670.41;5053552;28;20485;-64
2022/05/06 09:45:38;;;;;;;7.20;6.90;;;;;;;19.25;22.28;101664.22;5037479;28;20025;-63
2022/05/06 09:48:04;;;;;;;7.25;6.95;;;;;;;19.46;22.15;101657.81;5054466;28;20025;-62
2022/05/06 09:50:41;;;;;;;7.00;6.70;;;;;;;20.13;21.70;101662.19;5051371;28;20034;-63
2022/05/06 09:53:10;;;;;;;6.90;6.60;;;;;;;19.23;21.98;101663.59;5058532;28;20508;-62
2022/05/06 09:55:38;;;;;;;7.55;7.25;;;;;;;20.24;21.93;101668.78;5041112;28;20120;-64
2022/05/06 09:58:03;;;;;;;7.15;6.85;;;;;;;19.28;22.02;101677.25;5056138;28;20045;-63
2022/05/06 10:00:30;;;;;;;7.25;6.95;;;;;;;18.85;22.91;101658.72;5056364;28;20044;-62
2022/05/06 10:02:56;;;;;;;7.00;6.70;;;;;;;18.78;22.68;101647.13;5043648;28;20091;-63
2022/05/06 10:05:24;;;;;;;6.70;6.40;;;;;;;19.02;23.29;101654.66;5043738;28;20747;-63
2022/05/06 10:07:55;;;;;;;7.10;6.80;;;;;;;18.88;22.85;101649.44;5051975;28;20475;-63
2022/05/06 10:10:25;;;;;;;7.10;6.80;;;;;;;19.46;23.23;101641.66;5051244;28;20103;-64
2022/05/06 10:13:01;;;;;;;7.82;7.53;;;;;;;19.23;23.82;101639.38;5051387;28;20088;-61
2022/05/06 10:15:29;;;;;;;6.60;6.30;;;;;;;18.99;23.44;101630.84;5053034;28;20025;-62
2022/05/06 10:18:07;;;;;;;7.18;6.88;;;;;;;19.37;23.12;101634.84;5057183;28;20025;-63
2022/05/06 10:20:35;;;;;;;7.25;6.95;;;;;;;19.04;23.03;101639.16;5043806;28;20502;-62
2022/05/06 10:23:15;;;;;;;7.00;6.70;;;;;;;19.22;23.23;101640.41;5057408;28;20032;-62
2022/05/06 10:25:41;;;;;;;7.00;6.70;;;;;;;19.36;23.83;101636.69;5049281;28;20032;-62
2022/05/06 10:34:08;;;;;;;6.57;6.28;;;;;;;18.96;23.62;101630.44;5054122;28;20039;-62
2022/05/06 10:36:50;;;;;;;6.80;6.50;;;;;;;18.70;23.72;101631.16;5059890;28;20426;-61
2022/05/06 10:39:28;;;;;;;6.68;6.38;;;;;;;18.30;23.83;101614.03;5049742;28;20369;-62
2022/05/06 10:42:00;;;;;;;6.63;6.32;;;;;;;18.85;23.74;101637.22;5055970;28;20520;-62
2022/05/06 10:44:34;;;;;;;6.70;6.40;;;;;;;18.71;23.46;101612.16;5048042;28;20029;-61
2022/05/06 10:46:59;;;;;;;6.63;6.32;;;;;;;19.06;23.74;101609.34;5055489;28;20511;-63
2022/05/06 10:49:34;;;;;;;6.40;6.10;;;;;;;19.18;23.85;101604.22;5051995;28;20021;-62
2022/05/06 10:52:23;;;;;;;;;;;;;;;;;;;;;
2022/05/06 10:54:47;;;;;;;6.97;6.68;;;;;;;19.49;24.25;101608.97;5046770;28;20439;-62
2022/05/06 10:57:17;;;;;;;7.00;6.70;;;;;;;18.59;23.82;101602.16;5031186;28;20033;-63
2022/05/06 11:00:08;;;;;;;6.60;6.30;;;;;;;19.05;23.75;101592.38;5039531;28;20125;-63
2022/05/06 11:02:36;;;;;;;6.82;6.53;;;;;;;18.82;23.39;101594.63;5057131;28;20025;-65
2022/05/06 11:05:04;;;;;;;6.60;6.30;;;;;;;18.60;23.14;101587.69;5051547;28;20109;-63
2022/05/06 11:07:32;;;;;;;6.53;6.22;;;;;;;19.23;23.79;101580.19;5044479;28;20029;-61
2022/05/06 11:09:58;;;;;;;6.70;6.40;;;;;;;19.73;22.62;101567.97;5051455;28;20423;-61
2022/05/06 11:12:40;;;;;;;7.25;6.95;;;;;;;19.40;23.36;101578.75;5041026;28;20029;-63
2022/05/06 11:15:10;;;;;;;7.03;6.72;;;;;;;19.30;22.86;101581.03;5050709;28;20112;-62
2022/05/06 11:17:36;;;;;;;6.57;6.28;;;;;;;19.44;22.80;101566.53;5068940;28;20391;-62
2022/05/06 11:20:05;;;;;;;6.60;6.30;;;;;;;19.71;23.53;101572.75;5037339;28;20021;-64
2022/05/06 11:22:33;;;;;;;6.82;6.53;;;;;;;19.21;23.35;101582.25;5049926;28;20060;-63
2022/05/06 11:25:00;;;;;;;6.65;6.35;;;;;;;19.54;23.37;101560.75;5053547;28;20078;-64
2022/05/06 11:27:26;;;;;;;7.00;6.70;;;;;;;19.69;23.27;101569.47;5044914;28;20489;-61
2022/05/06 11:29:59;;;;;;;6.60;6.30;;;;;;;19.55;23.30;101557.84;5049747;28;20045;-63
2022/05/06 11:32:29;;;;;;;6.70;6.40;;;;;;;19.84;23.13;101563.84;5048180;28;20060;-64
2022/05/06 11:34:57;;;;;;;6.63;6.32;;;;;;;19.60;23.00;101563.44;5050418;28;20021;-64
2022/05/06 11:37:28;;;;;;;6.60;6.30;;;;;;;19.15;23.59;101559.69;5047368;28;20041;-63
2022/05/06 11:42:39;;;;;;;6.80;6.50;;;;;;;19.88;22.95;101543.50;5046187;28;20094;-62
2022/05/06 11:47:49;;;;;;;6.20;5.97;;;;;;;19.80;23.20;101562.59;5054124;28;20032;-63
2022/05/06 11:50:14;;;;;;;6.78;6.47;;;;;;;20.04;23.91;101551.13;5049591;28;20029;-63
2022/05/06 11:52:42;;;;;;;6.75;6.45;;;;;;;19.76;22.71;101531.75;5044788;28;20028;-62
2022/05/06 11:55:08;;;;;;;6.63;6.32;;;;;;;19.92;23.08;101544.75;5049213;28;20044;-63
2022/05/06 11:57:39;;;;;;;6.35;6.05;;;;;;;20.18;23.47;101521.44;5052051;28;20028;-62
2022/05/06 12:00:06;;;;;;;6.63;6.32;;;;;;;20.09;23.42;101529.78;5048458;28;20032;-63
2022/05/06 12:02:33;;;;;;;6.95;6.65;;;;;;;20.08;22.16;101535.38;5051137;28;20074;-61
2022/05/06 12:04:58;;;;;;;6.45;6.15;;;;;;;20.26;22.21;101535.50;5050334;28;20031;-62
2022/05/06 12:07:42;;;;;;;6.32;6.05;;;;;;;19.99;22.32;101526.72;5062496;28;20024;-63
2022/05/06 12:10:09;;;;;;;6.60;6.30;;;;;;;20.46;21.74;101516.56;5048968;28;20036;-63
2022/05/06 12:12:54;;;;;;;6.63;6.32;;;;;;;20.04;21.73;101529.56;5048612;28;20101;-62